sensor_id;sensor_type;location;lat;lon;timestamp;P1;durP1;ratioP1;P2;durP2;ratioP2
79261;SDS011;68699;48.220;16.358;2023-04-03T00:01:37;3.00;;;2.70;;
79261;SDS011;68699;48.220;16.358;2023-04-03T00:04:04;3.00;;;2.70;;
79261;SDS011;68699;48.220;16.358;2023-04-03T00:06:31;2.60;;;2.40;;
79261;SDS011;68699;48.220;16.358;2023-04-03T00:08:57;2.97;;;2.60;;
79261;SDS011;68699;48.220;16.358;2023-04-03T00:11:24;2.70;;;2.50;;
79261;SDS011;68699;48.220;16.358;2023-04-03T00:13:50;2.70;;;2.50;;
79261;SDS011;68699;48.220;16.358;2023-04-03T00:16:16;2.23;;;2.10;;
79261;SDS011;68699;48.220;16.358;2023-04-03T00:18:43;3.07;;;2.83;;
79261;SDS011;68699;48.220;16.358;2023-04-03T00:21:09;2.97;;;2.37;;
79261;SDS011;68699;48.220;16.358;2023-04-03T00:23:35;2.80;;;2.37;;
79261;SDS011;68699;48.220;16.358;2023-04-03T00:26:02;2.60;;;2.40;;
79261;SDS011;68699;48.220;16.358;2023-04-03T00:28:28;2.87;;;2.40;;
79261;SDS011;68699;48.220;16.358;2023-04-03T00:30:54;2.90;;;2.60;;
79261;SDS011;68699;48.220;16.358;2023-04-03T00:33:20;4.07;;;2.70;;
79261;SDS011;68699;48.220;16.358;2023-04-03T00:35:47;2.57;;;2.37;;
79261;SDS011;68699;48.220;16.358;2023-04-03T00:38:13;2.67;;;2.47;;
79261;SDS011;68699;48.220;16.358;2023-04-03T00:40:42;2.63;;;2.40;;
79261;SDS011;68699;48.220;16.358;2023-04-03T00:43:16;2.30;;;2.10;;
79261;SDS011;68699;48.220;16.358;2023-04-03T00:45:43;3.03;;;2.53;;
79261;SDS011;68699;48.220;16.358;2023-04-03T00:48:11;3.37;;;2.63;;
79261;SDS011;68699;48.220;16.358;2023-04-03T00:50:39;2.50;;;2.30;;
79261;SDS011;68699;48.220;16.358;2023-04-03T00:53:06;2.53;;;2.33;;
79261;SDS011;68699;48.220;16.358;2023-04-03T00:55:34;2.63;;;2.43;;
79261;SDS011;68699;48.220;16.358;2023-04-03T00:58:01;2.73;;;2.43;;
79261;SDS011;68699;48.220;16.358;2023-04-03T01:00:27;2.70;;;2.50;;
79261;SDS011;68699;48.220;16.358;2023-04-03T01:02:53;2.83;;;2.53;;
79261;SDS011;68699;48.220;16.358;2023-04-03T01:05:20;2.57;;;2.37;;
79261;SDS011;68699;48.220;16.358;2023-04-03T01:07:47;3.27;;;2.60;;
79261;SDS011;68699;48.220;16.358;2023-04-03T01:10:15;3.03;;;2.50;;
79261;SDS011;68699;48.220;16.358;2023-04-03T01:12:43;2.70;;;2.50;;
79261;SDS011;68699;48.220;16.358;2023-04-03T01:15:23;3.20;;;2.47;;
79261;SDS011;68699;48.220;16.358;2023-04-03T01:17:54;3.00;;;2.80;;
79261;SDS011;68699;48.220;16.358;2023-04-03T01:23:04;2.80;;;2.50;;
79261;SDS011;68699;48.220;16.358;2023-04-03T01:25:45;3.03;;;2.83;;
79261;SDS011;68699;48.220;16.358;2023-04-03T01:28:13;2.57;;;2.37;;
79261;SDS011;68699;48.220;16.358;2023-04-03T01:31:24;2.63;;;2.43;;
79261;SDS011;68699;48.220;16.358;2023-04-03T01:33:29;2.90;;;2.60;;
79261;SDS011;68699;48.220;16.358;2023-04-03T01:35:56;2.67;;;2.43;;
79261;SDS011;68699;48.220;16.358;2023-04-03T01:38:22;2.60;;;2.40;;
79261;SDS011;68699;48.220;16.358;2023-04-03T01:40:48;2.80;;;2.60;;
79261;SDS011;68699;48.220;16.358;2023-04-03T01:43:14;2.90;;;2.60;;
79261;SDS011;68699;48.220;16.358;2023-04-03T01:45:41;2.40;;;2.20;;
79261;SDS011;68699;48.220;16.358;2023-04-03T01:48:07;2.73;;;2.53;;
79261;SDS011;68699;48.220;16.358;2023-04-03T01:50:33;2.23;;;2.03;;
79261;SDS011;68699;48.220;16.358;2023-04-03T01:52:59;2.57;;;2.37;;
79261;SDS011;68699;48.220;16.358;2023-04-03T01:55:25;2.53;;;2.33;;
79261;SDS011;68699;48.220;16.358;2023-04-03T01:57:51;2.50;;;2.30;;
79261;SDS011;68699;48.220;16.358;2023-04-03T02:00:18;2.40;;;2.20;;
79261;SDS011;68699;48.220;16.358;2023-04-03T02:02:44;2.67;;;2.47;;
79261;SDS011;68699;48.220;16.358;2023-04-03T02:05:10;2.90;;;2.60;;
79261;SDS011;68699;48.220;16.358;2023-04-03T02:07:36;2.70;;;2.50;;
79261;SDS011;68699;48.220;16.358;2023-04-03T02:10:02;2.63;;;2.40;;
79261;SDS011;68699;48.220;16.358;2023-04-03T02:12:29;2.70;;;2.50;;
79261;SDS011;68699;48.220;16.358;2023-04-03T02:14:55;2.60;;;2.40;;
79261;SDS011;68699;48.220;16.358;2023-04-03T02:17:21;2.87;;;2.60;;
79261;SDS011;68699;48.220;16.358;2023-04-03T02:19:47;2.50;;;2.30;;
79261;SDS011;68699;48.220;16.358;2023-04-03T02:22:14;3.10;;;2.80;;
79261;SDS011;68699;48.220;16.358;2023-04-03T02:24:40;2.60;;;2.40;;
79261;SDS011;68699;48.220;16.358;2023-04-03T02:27:06;3.67;;;2.83;;
79261;SDS011;68699;48.220;16.358;2023-04-03T02:29:33;3.00;;;2.80;;
79261;SDS011;68699;48.220;16.358;2023-04-03T02:31:59;2.47;;;2.27;;
79261;SDS011;68699;48.220;16.358;2023-04-03T02:34:25;3.00;;;2.70;;
79261;SDS011;68699;48.220;16.358;2023-04-03T02:36:51;2.80;;;2.60;;
79261;SDS011;68699;48.220;16.358;2023-04-03T02:39:17;3.00;;;2.80;;
79261;SDS011;68699;48.220;16.358;2023-04-03T02:41:43;3.13;;;2.83;;
79261;SDS011;68699;48.220;16.358;2023-04-03T02:44:10;3.40;;;2.90;;
79261;SDS011;68699;48.220;16.358;2023-04-03T02:46:36;3.30;;;3.00;;
79261;SDS011;68699;48.220;16.358;2023-04-03T02:49:02;3.27;;;2.67;;
79261;SDS011;68699;48.220;16.358;2023-04-03T02:51:29;3.27;;;2.90;;
79261;SDS011;68699;48.220;16.358;2023-04-03T02:53:55;3.50;;;3.20;;
79261;SDS011;68699;48.220;16.358;2023-04-03T02:56:21;2.93;;;2.63;;
79261;SDS011;68699;48.220;16.358;2023-04-03T02:58:47;3.10;;;2.87;;
79261;SDS011;68699;48.220;16.358;2023-04-03T03:01:14;3.20;;;2.83;;
79261;SDS011;68699;48.220;16.358;2023-04-03T03:03:40;3.10;;;2.90;;
79261;SDS011;68699;48.220;16.358;2023-04-03T03:06:07;2.83;;;2.60;;
79261;SDS011;68699;48.220;16.358;2023-04-03T03:08:34;3.20;;;3.00;;
79261;SDS011;68699;48.220;16.358;2023-04-03T03:11:01;2.87;;;2.60;;
79261;SDS011;68699;48.220;16.358;2023-04-03T03:13:27;3.10;;;2.73;;
79261;SDS011;68699;48.220;16.358;2023-04-03T03:15:53;2.90;;;2.63;;
79261;SDS011;68699;48.220;16.358;2023-04-03T03:18:20;3.27;;;2.77;;
79261;SDS011;68699;48.220;16.358;2023-04-03T03:20:46;2.77;;;2.53;;
79261;SDS011;68699;48.220;16.358;2023-04-03T03:23:12;2.90;;;2.70;;
79261;SDS011;68699;48.220;16.358;2023-04-03T03:25:39;3.00;;;2.63;;
79261;SDS011;68699;48.220;16.358;2023-04-03T03:28:06;2.67;;;2.47;;
79261;SDS011;68699;48.220;16.358;2023-04-03T03:30:32;3.43;;;2.60;;
79261;SDS011;68699;48.220;16.358;2023-04-03T03:32:58;2.50;;;2.30;;
79261;SDS011;68699;48.220;16.358;2023-04-03T03:35:25;2.60;;;2.40;;
79261;SDS011;68699;48.220;16.358;2023-04-03T03:37:51;3.23;;;2.67;;
79261;SDS011;68699;48.220;16.358;2023-04-03T03:40:17;2.43;;;2.23;;
79261;SDS011;68699;48.220;16.358;2023-04-03T03:42:43;2.80;;;2.60;;
79261;SDS011;68699;48.220;16.358;2023-04-03T03:45:13;2.70;;;2.50;;
79261;SDS011;68699;48.220;16.358;2023-04-03T03:47:39;2.73;;;2.47;;
79261;SDS011;68699;48.220;16.358;2023-04-03T03:50:06;2.67;;;2.47;;
79261;SDS011;68699;48.220;16.358;2023-04-03T03:52:38;2.63;;;2.43;;
79261;SDS011;68699;48.220;16.358;2023-04-03T03:55:05;2.80;;;2.60;;
79261;SDS011;68699;48.220;16.358;2023-04-03T03:57:31;2.77;;;2.57;;
79261;SDS011;68699;48.220;16.358;2023-04-03T03:59:57;2.97;;;2.50;;
79261;SDS011;68699;48.220;16.358;2023-04-03T04:02:23;3.30;;;3.00;;
79261;SDS011;68699;48.220;16.358;2023-04-03T04:04:50;2.87;;;2.40;;
79261;SDS011;68699;48.220;16.358;2023-04-03T04:07:16;2.53;;;2.40;;
79261;SDS011;68699;48.220;16.358;2023-04-03T04:09:42;2.73;;;2.53;;
79261;SDS011;68699;48.220;16.358;2023-04-03T04:12:08;2.70;;;2.50;;
79261;SDS011;68699;48.220;16.358;2023-04-03T04:14:34;2.70;;;2.50;;
79261;SDS011;68699;48.220;16.358;2023-04-03T04:17:00;2.93;;;2.70;;
79261;SDS011;68699;48.220;16.358;2023-04-03T04:19:27;3.07;;;2.60;;
79261;SDS011;68699;48.220;16.358;2023-04-03T04:21:53;3.20;;;2.90;;
79261;SDS011;68699;48.220;16.358;2023-04-03T04:24:20;3.03;;;2.73;;
79261;SDS011;68699;48.220;16.358;2023-04-03T04:26:48;3.10;;;2.90;;
79261;SDS011;68699;48.220;16.358;2023-04-03T04:29:14;3.40;;;2.87;;
79261;SDS011;68699;48.220;16.358;2023-04-03T04:31:40;3.23;;;2.93;;
79261;SDS011;68699;48.220;16.358;2023-04-03T04:34:06;3.30;;;3.00;;
79261;SDS011;68699;48.220;16.358;2023-04-03T04:36:33;3.20;;;2.90;;
79261;SDS011;68699;48.220;16.358;2023-04-03T04:38:59;2.90;;;2.70;;
79261;SDS011;68699;48.220;16.358;2023-04-03T04:41:25;2.90;;;2.60;;
79261;SDS011;68699;48.220;16.358;2023-04-03T04:43:51;3.97;;;2.83;;
79261;SDS011;68699;48.220;16.358;2023-04-03T04:46:18;3.10;;;2.77;;
79261;SDS011;68699;48.220;16.358;2023-04-03T04:48:44;3.43;;;2.90;;
79261;SDS011;68699;48.220;16.358;2023-04-03T04:51:10;3.10;;;2.80;;
79261;SDS011;68699;48.220;16.358;2023-04-03T04:53:37;2.70;;;2.50;;
79261;SDS011;68699;48.220;16.358;2023-04-03T04:56:03;4.97;;;2.80;;
79261;SDS011;68699;48.220;16.358;2023-04-03T04:58:29;3.00;;;2.70;;
79261;SDS011;68699;48.220;16.358;2023-04-03T05:01:02;4.13;;;2.90;;
79261;SDS011;68699;48.220;16.358;2023-04-03T05:03:29;2.90;;;2.60;;
79261;SDS011;68699;48.220;16.358;2023-04-03T05:05:56;2.73;;;2.53;;
79261;SDS011;68699;48.220;16.358;2023-04-03T05:08:23;3.07;;;2.77;;
79261;SDS011;68699;48.220;16.358;2023-04-03T05:10:49;3.37;;;2.70;;
79261;SDS011;68699;48.220;16.358;2023-04-03T05:13:16;2.80;;;2.60;;
79261;SDS011;68699;48.220;16.358;2023-04-03T05:15:42;3.93;;;3.00;;
79261;SDS011;68699;48.220;16.358;2023-04-03T05:18:08;3.83;;;2.80;;
79261;SDS011;68699;48.220;16.358;2023-04-03T05:20:35;3.20;;;2.90;;
79261;SDS011;68699;48.220;16.358;2023-04-03T05:23:02;3.10;;;2.80;;
79261;SDS011;68699;48.220;16.358;2023-04-03T05:25:28;3.07;;;2.87;;
79261;SDS011;68699;48.220;16.358;2023-04-03T05:27:54;3.60;;;3.10;;
79261;SDS011;68699;48.220;16.358;2023-04-03T05:30:21;3.27;;;2.97;;
79261;SDS011;68699;48.220;16.358;2023-04-03T05:32:47;3.20;;;2.90;;
79261;SDS011;68699;48.220;16.358;2023-04-03T05:35:13;3.20;;;2.90;;
79261;SDS011;68699;48.220;16.358;2023-04-03T05:37:39;3.53;;;2.80;;
79261;SDS011;68699;48.220;16.358;2023-04-03T05:40:06;3.23;;;2.90;;
79261;SDS011;68699;48.220;16.358;2023-04-03T05:42:32;3.10;;;2.60;;
79261;SDS011;68699;48.220;16.358;2023-04-03T05:44:58;3.00;;;2.80;;
79261;SDS011;68699;48.220;16.358;2023-04-03T05:47:25;3.20;;;2.70;;
79261;SDS011;68699;48.220;16.358;2023-04-03T05:49:51;6.37;;;2.70;;
79261;SDS011;68699;48.220;16.358;2023-04-03T05:52:28;2.80;;;2.50;;
79261;SDS011;68699;48.220;16.358;2023-04-03T05:54:55;4.33;;;2.80;;
79261;SDS011;68699;48.220;16.358;2023-04-03T05:57:22;3.30;;;3.00;;
79261;SDS011;68699;48.220;16.358;2023-04-03T05:59:48;3.10;;;2.80;;
79261;SDS011;68699;48.220;16.358;2023-04-03T06:02:16;3.10;;;2.80;;
79261;SDS011;68699;48.220;16.358;2023-04-03T06:04:43;3.43;;;2.67;;
79261;SDS011;68699;48.220;16.358;2023-04-03T06:07:13;3.27;;;2.90;;
79261;SDS011;68699;48.220;16.358;2023-04-03T06:09:40;3.10;;;2.80;;
79261;SDS011;68699;48.220;16.358;2023-04-03T06:12:07;3.50;;;2.93;;
79261;SDS011;68699;48.220;16.358;2023-04-03T06:14:33;3.77;;;2.93;;
79261;SDS011;68699;48.220;16.358;2023-04-03T06:16:59;3.77;;;2.67;;
79261;SDS011;68699;48.220;16.358;2023-04-03T06:19:26;3.10;;;2.80;;
79261;SDS011;68699;48.220;16.358;2023-04-03T06:21:53;3.60;;;3.07;;
79261;SDS011;68699;48.220;16.358;2023-04-03T06:24:19;3.13;;;2.83;;
79261;SDS011;68699;48.220;16.358;2023-04-03T06:26:47;3.30;;;2.70;;
79261;SDS011;68699;48.220;16.358;2023-04-03T06:29:16;3.67;;;2.90;;
79261;SDS011;68699;48.220;16.358;2023-04-03T06:31:43;2.83;;;2.60;;
79261;SDS011;68699;48.220;16.358;2023-04-03T06:34:09;3.00;;;2.70;;
79261;SDS011;68699;48.220;16.358;2023-04-03T06:36:37;3.40;;;2.93;;
79261;SDS011;68699;48.220;16.358;2023-04-03T06:39:03;3.10;;;2.80;;
79261;SDS011;68699;48.220;16.358;2023-04-03T06:41:30;4.00;;;3.10;;
79261;SDS011;68699;48.220;16.358;2023-04-03T06:43:56;3.40;;;2.87;;
79261;SDS011;68699;48.220;16.358;2023-04-03T06:46:24;4.77;;;2.60;;
79261;SDS011;68699;48.220;16.358;2023-04-03T06:48:50;4.00;;;2.87;;
79261;SDS011;68699;48.220;16.358;2023-04-03T06:51:23;2.87;;;2.67;;
79261;SDS011;68699;48.220;16.358;2023-04-03T06:53:52;3.73;;;2.80;;
79261;SDS011;68699;48.220;16.358;2023-04-03T06:56:19;3.23;;;2.70;;
79261;SDS011;68699;48.220;16.358;2023-04-03T06:58:48;3.70;;;2.90;;
79261;SDS011;68699;48.220;16.358;2023-04-03T07:01:16;5.23;;;2.80;;
79261;SDS011;68699;48.220;16.358;2023-04-03T07:03:45;4.20;;;3.20;;
79261;SDS011;68699;48.220;16.358;2023-04-03T07:06:13;2.80;;;2.50;;
79261;SDS011;68699;48.220;16.358;2023-04-03T07:08:40;3.40;;;2.70;;
79261;SDS011;68699;48.220;16.358;2023-04-03T07:11:09;4.20;;;2.80;;
79261;SDS011;68699;48.220;16.358;2023-04-03T07:13:36;3.87;;;3.00;;
79261;SDS011;68699;48.220;16.358;2023-04-03T07:16:02;3.27;;;2.93;;
79261;SDS011;68699;48.220;16.358;2023-04-03T07:18:30;2.77;;;2.57;;
79261;SDS011;68699;48.220;16.358;2023-04-03T07:20:56;4.33;;;3.30;;
79261;SDS011;68699;48.220;16.358;2023-04-03T07:23:22;3.90;;;2.73;;
79261;SDS011;68699;48.220;16.358;2023-04-03T07:25:49;3.90;;;2.67;;
79261;SDS011;68699;48.220;16.358;2023-04-03T07:28:16;3.80;;;2.90;;
79261;SDS011;68699;48.220;16.358;2023-04-03T07:30:47;3.03;;;2.73;;
79261;SDS011;68699;48.220;16.358;2023-04-03T07:33:14;4.40;;;2.87;;
79261;SDS011;68699;48.220;16.358;2023-04-03T07:35:40;3.23;;;2.77;;
79261;SDS011;68699;48.220;16.358;2023-04-03T07:38:07;4.93;;;3.30;;
79261;SDS011;68699;48.220;16.358;2023-04-03T07:40:53;2.97;;;2.77;;
79261;SDS011;68699;48.220;16.358;2023-04-03T07:43:20;4.07;;;3.10;;
79261;SDS011;68699;48.220;16.358;2023-04-03T07:45:46;3.87;;;2.73;;
79261;SDS011;68699;48.220;16.358;2023-04-03T07:48:15;3.80;;;2.73;;
79261;SDS011;68699;48.220;16.358;2023-04-03T07:50:42;3.07;;;2.40;;
79261;SDS011;68699;48.220;16.358;2023-04-03T07:53:09;6.13;;;3.00;;
79261;SDS011;68699;48.220;16.358;2023-04-03T07:55:36;4.30;;;2.93;;
79261;SDS011;68699;48.220;16.358;2023-04-03T07:58:08;4.37;;;2.80;;
79261;SDS011;68699;48.220;16.358;2023-04-03T08:00:35;3.93;;;2.90;;
79261;SDS011;68699;48.220;16.358;2023-04-03T08:03:02;3.83;;;3.00;;
79261;SDS011;68699;48.220;16.358;2023-04-03T08:05:28;3.23;;;2.73;;
79261;SDS011;68699;48.220;16.358;2023-04-03T08:07:54;5.93;;;3.50;;
79261;SDS011;68699;48.220;16.358;2023-04-03T08:10:21;5.80;;;3.10;;
79261;SDS011;68699;48.220;16.358;2023-04-03T08:12:47;4.90;;;3.40;;
79261;SDS011;68699;48.220;16.358;2023-04-03T08:15:13;3.93;;;3.23;;
79261;SDS011;68699;48.220;16.358;2023-04-03T08:17:40;3.33;;;3.03;;
79261;SDS011;68699;48.220;16.358;2023-04-03T08:20:06;5.23;;;3.23;;
79261;SDS011;68699;48.220;16.358;2023-04-03T08:22:33;4.60;;;3.20;;
79261;SDS011;68699;48.220;16.358;2023-04-03T08:24:59;4.57;;;3.03;;
79261;SDS011;68699;48.220;16.358;2023-04-03T08:27:26;3.43;;;3.00;;
79261;SDS011;68699;48.220;16.358;2023-04-03T08:29:54;3.50;;;3.20;;
79261;SDS011;68699;48.220;16.358;2023-04-03T08:32:20;4.27;;;3.17;;
79261;SDS011;68699;48.220;16.358;2023-04-03T08:34:47;4.33;;;3.10;;
79261;SDS011;68699;48.220;16.358;2023-04-03T08:37:13;3.13;;;2.83;;
79261;SDS011;68699;48.220;16.358;2023-04-03T08:39:41;3.70;;;2.90;;
79261;SDS011;68699;48.220;16.358;2023-04-03T08:42:15;3.33;;;3.00;;
79261;SDS011;68699;48.220;16.358;2023-04-03T08:44:47;3.53;;;3.00;;
79261;SDS011;68699;48.220;16.358;2023-04-03T08:47:26;4.23;;;2.83;;
79261;SDS011;68699;48.220;16.358;2023-04-03T08:50:02;3.17;;;2.87;;
79261;SDS011;68699;48.220;16.358;2023-04-03T08:52:35;3.17;;;2.83;;
79261;SDS011;68699;48.220;16.358;2023-04-03T08:55:03;3.23;;;2.93;;
79261;SDS011;68699;48.220;16.358;2023-04-03T08:57:38;4.00;;;2.57;;
79261;SDS011;68699;48.220;16.358;2023-04-03T09:00:26;3.73;;;2.60;;
79261;SDS011;68699;48.220;16.358;2023-04-03T09:02:53;4.50;;;2.87;;
79261;SDS011;68699;48.220;16.358;2023-04-03T09:05:21;4.53;;;2.70;;
79261;SDS011;68699;48.220;16.358;2023-04-03T09:08:12;4.83;;;2.83;;
79261;SDS011;68699;48.220;16.358;2023-04-03T09:10:40;2.93;;;2.73;;
79261;SDS011;68699;48.220;16.358;2023-04-03T09:13:21;2.53;;;2.27;;
79261;SDS011;68699;48.220;16.358;2023-04-03T09:15:48;2.57;;;2.30;;
79261;SDS011;68699;48.220;16.358;2023-04-03T09:18:21;2.87;;;2.60;;
79261;SDS011;68699;48.220;16.358;2023-04-03T09:26:02;3.90;;;2.90;;
79261;SDS011;68699;48.220;16.358;2023-04-03T09:28:30;4.07;;;2.33;;
79261;SDS011;68699;48.220;16.358;2023-04-03T09:30:59;2.67;;;2.47;;
79261;SDS011;68699;48.220;16.358;2023-04-03T09:33:25;2.80;;;2.50;;
79261;SDS011;68699;48.220;16.358;2023-04-03T09:35:52;3.17;;;2.43;;
79261;SDS011;68699;48.220;16.358;2023-04-03T09:38:20;2.90;;;2.50;;
79261;SDS011;68699;48.220;16.358;2023-04-03T09:40:48;2.60;;;2.40;;
79261;SDS011;68699;48.220;16.358;2023-04-03T09:43:30;3.70;;;2.53;;
79261;SDS011;68699;48.220;16.358;2023-04-03T09:46:15;3.73;;;2.93;;
79261;SDS011;68699;48.220;16.358;2023-04-03T09:48:52;4.20;;;2.70;;
79261;SDS011;68699;48.220;16.358;2023-04-03T09:51:23;3.47;;;3.00;;
79261;SDS011;68699;48.220;16.358;2023-04-03T09:53:51;5.10;;;2.80;;
79261;SDS011;68699;48.220;16.358;2023-04-03T09:56:21;2.83;;;2.63;;
79261;SDS011;68699;48.220;16.358;2023-04-03T10:01:55;3.50;;;2.70;;
79261;SDS011;68699;48.220;16.358;2023-04-03T10:04:17;2.73;;;2.43;;
79261;SDS011;68699;48.220;16.358;2023-04-03T10:06:45;4.03;;;2.63;;
79261;SDS011;68699;48.220;16.358;2023-04-03T10:09:22;4.93;;;2.50;;
79261;SDS011;68699;48.220;16.358;2023-04-03T10:12:04;2.97;;;2.77;;
79261;SDS011;68699;48.220;16.358;2023-04-03T10:14:36;3.20;;;2.53;;
79261;SDS011;68699;48.220;16.358;2023-04-03T10:17:18;3.30;;;3.00;;
79261;SDS011;68699;48.220;16.358;2023-04-03T10:19:58;5.00;;;3.20;;
79261;SDS011;68699;48.220;16.358;2023-04-03T10:25:28;4.60;;;2.73;;
79261;SDS011;68699;48.220;16.358;2023-04-03T10:28:02;3.00;;;2.40;;
79261;SDS011;68699;48.220;16.358;2023-04-03T10:35:37;3.00;;;2.70;;
79261;SDS011;68699;48.220;16.358;2023-04-03T10:43:10;3.07;;;2.60;;
79261;SDS011;68699;48.220;16.358;2023-04-03T10:51:13;2.53;;;2.30;;
79261;SDS011;68699;48.220;16.358;2023-04-03T10:56:13;2.40;;;2.20;;
79261;SDS011;68699;48.220;16.358;2023-04-03T10:58:43;2.33;;;2.13;;
79261;SDS011;68699;48.220;16.358;2023-04-03T11:01:14;2.47;;;2.27;;
79261;SDS011;68699;48.220;16.358;2023-04-03T11:03:43;3.63;;;2.50;;
79261;SDS011;68699;48.220;16.358;2023-04-03T11:06:10;5.10;;;2.47;;
79261;SDS011;68699;48.220;16.358;2023-04-03T11:11:08;3.13;;;2.80;;
79261;SDS011;68699;48.220;16.358;2023-04-03T11:13:38;2.40;;;2.20;;
79261;SDS011;68699;48.220;16.358;2023-04-03T11:16:06;3.33;;;2.40;;
79261;SDS011;68699;48.220;16.358;2023-04-03T11:18:35;3.40;;;2.40;;
79261;SDS011;68699;48.220;16.358;2023-04-03T11:23:39;3.33;;;2.30;;
79261;SDS011;68699;48.220;16.358;2023-04-03T11:26:10;3.17;;;2.30;;
79261;SDS011;68699;48.220;16.358;2023-04-03T11:28:37;3.43;;;2.37;;
79261;SDS011;68699;48.220;16.358;2023-04-03T11:31:13;4.07;;;2.67;;
79261;SDS011;68699;48.220;16.358;2023-04-03T11:38:51;2.67;;;2.47;;
79261;SDS011;68699;48.220;16.358;2023-04-03T11:41:23;2.77;;;2.40;;
79261;SDS011;68699;48.220;16.358;2023-04-03T11:44:25;3.50;;;2.40;;
79261;SDS011;68699;48.220;16.358;2023-04-03T11:46:56;2.97;;;2.30;;
79261;SDS011;68699;48.220;16.358;2023-04-03T11:52:10;2.37;;;2.17;;
79261;SDS011;68699;48.220;16.358;2023-04-03T11:59:51;3.10;;;2.53;;
79261;SDS011;68699;48.220;16.358;2023-04-03T12:02:36;4.33;;;2.70;;
79261;SDS011;68699;48.220;16.358;2023-04-03T12:13:31;2.80;;;2.60;;
79261;SDS011;68699;48.220;16.358;2023-04-03T12:15:58;3.37;;;2.60;;
79261;SDS011;68699;48.220;16.358;2023-04-03T12:18:32;2.50;;;2.30;;
79261;SDS011;68699;48.220;16.358;2023-04-03T12:21:03;2.93;;;2.47;;
79261;SDS011;68699;48.220;16.358;2023-04-03T12:23:31;3.60;;;2.80;;
79261;SDS011;68699;48.220;16.358;2023-04-03T12:28:42;2.70;;;2.50;;
79261;SDS011;68699;48.220;16.358;2023-04-03T12:31:10;2.67;;;2.47;;
79261;SDS011;68699;48.220;16.358;2023-04-03T12:34:00;3.30;;;2.37;;
79261;SDS011;68699;48.220;16.358;2023-04-03T12:42:25;3.00;;;2.70;;
79261;SDS011;68699;48.220;16.358;2023-04-03T12:45:19;2.40;;;2.20;;
79261;SDS011;68699;48.220;16.358;2023-04-03T12:47:43;2.80;;;2.50;;
79261;SDS011;68699;48.220;16.358;2023-04-03T12:50:17;2.80;;;2.60;;
79261;SDS011;68699;48.220;16.358;2023-04-03T12:52:45;4.10;;;2.67;;
79261;SDS011;68699;48.220;16.358;2023-04-03T12:55:15;3.70;;;2.47;;
79261;SDS011;68699;48.220;16.358;2023-04-03T12:57:42;4.13;;;2.73;;
79261;SDS011;68699;48.220;16.358;2023-04-03T13:00:18;3.20;;;2.90;;
79261;SDS011;68699;48.220;16.358;2023-04-03T13:02:45;3.20;;;2.60;;
79261;SDS011;68699;48.220;16.358;2023-04-03T13:05:14;2.83;;;2.20;;
79261;SDS011;68699;48.220;16.358;2023-04-03T13:07:41;4.10;;;2.80;;
79261;SDS011;68699;48.220;16.358;2023-04-03T13:12:35;2.53;;;2.33;;
79261;SDS011;68699;48.220;16.358;2023-04-03T13:15:11;3.00;;;2.30;;
79261;SDS011;68699;48.220;16.358;2023-04-03T13:17:38;2.70;;;2.50;;
79261;SDS011;68699;48.220;16.358;2023-04-03T13:20:17;3.03;;;2.20;;
79261;SDS011;68699;48.220;16.358;2023-04-03T13:22:54;3.60;;;2.30;;
79261;SDS011;68699;48.220;16.358;2023-04-03T13:25:23;2.63;;;2.03;;
79261;SDS011;68699;48.220;16.358;2023-04-03T13:27:50;2.10;;;2.00;;
79261;SDS011;68699;48.220;16.358;2023-04-03T13:30:20;2.33;;;2.10;;
79261;SDS011;68699;48.220;16.358;2023-04-03T13:32:47;2.50;;;2.30;;
79261;SDS011;68699;48.220;16.358;2023-04-03T13:35:27;3.60;;;2.30;;
79261;SDS011;68699;48.220;16.358;2023-04-03T13:37:54;3.27;;;2.40;;
79261;SDS011;68699;48.220;16.358;2023-04-03T13:40:20;2.27;;;2.07;;
79261;SDS011;68699;48.220;16.358;2023-04-03T13:42:57;3.60;;;2.47;;
79261;SDS011;68699;48.220;16.358;2023-04-03T13:45:33;3.87;;;2.53;;
79261;SDS011;68699;48.220;16.358;2023-04-03T13:48:07;2.77;;;2.27;;
79261;SDS011;68699;48.220;16.358;2023-04-03T13:50:41;3.50;;;2.70;;
79261;SDS011;68699;48.220;16.358;2023-04-03T13:53:16;2.60;;;2.40;;
79261;SDS011;68699;48.220;16.358;2023-04-03T13:55:59;4.47;;;2.43;;
79261;SDS011;68699;48.220;16.358;2023-04-03T13:58:26;4.90;;;2.60;;
79261;SDS011;68699;48.220;16.358;2023-04-03T14:00:55;6.83;;;2.63;;
79261;SDS011;68699;48.220;16.358;2023-04-03T14:03:23;2.60;;;2.20;;
79261;SDS011;68699;48.220;16.358;2023-04-03T14:05:49;2.27;;;2.00;;
79261;SDS011;68699;48.220;16.358;2023-04-03T14:08:17;2.93;;;1.97;;
79261;SDS011;68699;48.220;16.358;2023-04-03T14:10:46;2.53;;;2.20;;
79261;SDS011;68699;48.220;16.358;2023-04-03T14:13:15;3.10;;;2.20;;
79261;SDS011;68699;48.220;16.358;2023-04-03T14:15:42;2.37;;;2.17;;
79261;SDS011;68699;48.220;16.358;2023-04-03T14:18:12;3.70;;;2.40;;
79261;SDS011;68699;48.220;16.358;2023-04-03T14:20:39;2.37;;;2.03;;
79261;SDS011;68699;48.220;16.358;2023-04-03T14:23:09;3.57;;;2.27;;
79261;SDS011;68699;48.220;16.358;2023-04-03T14:25:35;2.87;;;2.27;;
79261;SDS011;68699;48.220;16.358;2023-04-03T14:28:23;4.93;;;2.50;;
79261;SDS011;68699;48.220;16.358;2023-04-03T14:30:49;3.33;;;2.23;;
79261;SDS011;68699;48.220;16.358;2023-04-03T14:33:18;2.50;;;2.30;;
79261;SDS011;68699;48.220;16.358;2023-04-03T14:35:44;3.50;;;2.40;;
79261;SDS011;68699;48.220;16.358;2023-04-03T14:38:20;2.80;;;2.37;;
79261;SDS011;68699;48.220;16.358;2023-04-03T14:40:47;3.13;;;2.37;;
79261;SDS011;68699;48.220;16.358;2023-04-03T14:43:14;3.73;;;2.30;;
79261;SDS011;68699;48.220;16.358;2023-04-03T14:45:41;3.50;;;2.50;;
79261;SDS011;68699;48.220;16.358;2023-04-03T14:48:09;3.43;;;2.40;;
79261;SDS011;68699;48.220;16.358;2023-04-03T14:50:38;3.50;;;2.20;;
79261;SDS011;68699;48.220;16.358;2023-04-03T14:53:09;4.37;;;2.40;;
79261;SDS011;68699;48.220;16.358;2023-04-03T14:55:36;2.97;;;2.07;;
79261;SDS011;68699;48.220;16.358;2023-04-03T14:58:03;2.97;;;2.03;;
79261;SDS011;68699;48.220;16.358;2023-04-03T15:00:29;3.23;;;2.20;;
79261;SDS011;68699;48.220;16.358;2023-04-03T15:02:55;2.70;;;2.30;;
79261;SDS011;68699;48.220;16.358;2023-04-03T15:05:21;2.50;;;2.03;;
79261;SDS011;68699;48.220;16.358;2023-04-03T15:07:54;3.47;;;1.90;;
79261;SDS011;68699;48.220;16.358;2023-04-03T15:10:25;2.10;;;2.00;;
79261;SDS011;68699;48.220;16.358;2023-04-03T15:12:52;2.33;;;1.90;;
79261;SDS011;68699;48.220;16.358;2023-04-03T15:15:20;2.30;;;2.00;;
79261;SDS011;68699;48.220;16.358;2023-04-03T15:17:50;2.63;;;2.20;;
79261;SDS011;68699;48.220;16.358;2023-04-03T15:20:22;2.10;;;2.00;;
79261;SDS011;68699;48.220;16.358;2023-04-03T15:22:51;3.53;;;2.03;;
79261;SDS011;68699;48.220;16.358;2023-04-03T15:25:21;2.40;;;2.20;;
79261;SDS011;68699;48.220;16.358;2023-04-03T15:27:48;2.63;;;2.07;;
79261;SDS011;68699;48.220;16.358;2023-04-03T15:30:15;2.37;;;2.13;;
79261;SDS011;68699;48.220;16.358;2023-04-03T15:32:41;2.27;;;2.07;;
79261;SDS011;68699;48.220;16.358;2023-04-03T15:35:08;2.50;;;2.10;;
79261;SDS011;68699;48.220;16.358;2023-04-03T15:37:34;3.50;;;2.00;;
79261;SDS011;68699;48.220;16.358;2023-04-03T15:40:03;1.93;;;1.80;;
79261;SDS011;68699;48.220;16.358;2023-04-03T15:42:29;3.50;;;2.00;;
79261;SDS011;68699;48.220;16.358;2023-04-03T15:44:56;2.13;;;1.93;;
79261;SDS011;68699;48.220;16.358;2023-04-03T15:47:22;2.47;;;2.27;;
79261;SDS011;68699;48.220;16.358;2023-04-03T15:49:48;2.57;;;2.10;;
79261;SDS011;68699;48.220;16.358;2023-04-03T15:52:14;2.93;;;2.20;;